Rachel Carson — WDF9370 — position and weather

sailwx.info

Track history (hours):
 
Tides and Currents Weather Stations Pressure Air Temp Water Temp Dewpoint Dewpoint Depression Visibility Wind Speed Wind Dir Waves Ship Positions

Oceanographic research ship Rachel Carson (USA)

Owner: Monterey Bay Aquarium Research Institute, Moss Landing, CA. More information available from US FCC via Universal Licensing System and Coast Guard Vessel Documentation Center.

Last reported at 2017-Apr-17 21:43 UTC. Time now 2017-Apr-29 11:34 UTC.
Position N 36°45' W 122°00'.
Warning: this ship's position is 11 days out of date.

Length 42 m; draft 3 m.

Type: Dredging. MMSI: 338415000.

Date/timePositionNaut miles runAvg speedWind from/ knotsBaromVisibWave heightAir tempDewpointWater temp
2017-Apr-17 21:43N 36°45' W 122°00'210.1
2017-Apr-17 21:29N 36°45' W 122°03'510.3
2017-Apr-17 21:00N 36°44' W 122°09'510.0
2017-Apr-17 20:30N 36°43' W 122°15'5 9.5
2017-Apr-17 20:00N 36°42' W 122°21'1 2.8
2017-Apr-17 19:30N 36°41' W 122°23'0 0.4
2017-Apr-17 19:00N 36°41' W 122°23'5 9.2
2017-Apr-17 18:29N 36°42' W 122°17'4 9.3
2017-Apr-17 18:00N 36°43' W 122°11'5 9.1
2017-Apr-17 17:29N 36°44' W 122°06'4 7.8
2017-Apr-17 16:59N 36°45' W 122°01'0 0.6
2017-Apr-17 16:29N 36°45' W 122°01'  
2017-Apr-13 21:52N 36°43' W 122°03'1 1.4
2017-Apr-13 21:30N 36°42' W 122°04'0 0.6
2017-Apr-13 21:00N 36°42' W 122°03'0 0.0
2017-Apr-13 20:30N 36°42' W 122°03'0 0.1
2017-Apr-13 20:00N 36°42' W 122°03'0 0.1
2017-Apr-13 19:30N 36°42' W 122°03'0 0.1
2017-Apr-13 19:00N 36°42' W 122°03'0 0.2
2017-Apr-13 18:30N 36°42' W 122°03'0 0.2
2017-Apr-13 18:00N 36°42' W 122°03'0 0.0
2017-Apr-13 17:30N 36°42' W 122°03'0 0.2
2017-Apr-13 17:00N 36°42' W 122°03'0 0.3
2017-Apr-13 16:29N 36°42' W 122°03'0 0.5
2017-Apr-13 16:00N 36°42' W 122°03'10 0.2
2017-Apr-11 20:08N 36°38' W 121°52'1 9.2
2017-Apr-11 20:00N 36°37' W 121°52'1 1.2
2017-Apr-11 19:30N 36°36' W 121°53'0 0.5
2017-Apr-11 19:00N 36°36' W 121°53'0 0.4
2017-Apr-11 18:30N 36°36' W 121°53'0 0.5
2017-Apr-11 18:00N 36°36' W 121°53'0 0.4
2017-Apr-11 17:30N 36°36' W 121°53'1 2.0
2017-Apr-11 17:00N 36°37' W 121°53'0 1.0
2017-Apr-11 16:30N 36°38' W 121°53'1 0.0
2017-Apr-10 22:14N 36°38' W 121°52'1 5.1
2017-Apr-10 22:00N 36°37' W 121°52'0 0.7
2017-Apr-10 21:31N 36°37' W 121°53'1 1.5
2017-Apr-10 21:00N 36°37' W 121°53'0 0.1
2017-Apr-10 20:30N 36°37' W 121°53'0 0.4
2017-Apr-10 20:00N 36°37' W 121°53'  
Track history (hours):
 
Tides and Currents Weather Stations Pressure Air Temp Water Temp Dewpoint Dewpoint Depression Visibility Wind Speed Wind Dir Waves Ship Positions

Oceanographic research ship Rachel Carson (USA)

Owner: Monterey Bay Aquarium Research Institute, Moss Landing, CA. More information available from US FCC via Universal Licensing System and Coast Guard Vessel Documentation Center.

Last reported at 2017-Apr-17 21:43 UTC. Time now 2017-Apr-29 11:34 UTC.
Position N 36°45' W 122°00'.
Warning: this ship's position is 11 days out of date.

Length 42 m; draft 3 m.

Type: Dredging. MMSI: 338415000.

Date/timePositionNaut miles runAvg speedWind from/ knotsBaromVisibWave heightAir tempDewpointWater temp
2017-Apr-17 21:43N 36°45' W 122°00'210.1
2017-Apr-17 21:29N 36°45' W 122°03'510.3
2017-Apr-17 21:00N 36°44' W 122°09'510.0
2017-Apr-17 20:30N 36°43' W 122°15'5 9.5
2017-Apr-17 20:00N 36°42' W 122°21'1 2.8
2017-Apr-17 19:30N 36°41' W 122°23'0 0.4
2017-Apr-17 19:00N 36°41' W 122°23'5 9.2
2017-Apr-17 18:29N 36°42' W 122°17'4 9.3
2017-Apr-17 18:00N 36°43' W 122°11'5 9.1
2017-Apr-17 17:29N 36°44' W 122°06'4 7.8
2017-Apr-17 16:59N 36°45' W 122°01'0 0.6
2017-Apr-17 16:29N 36°45' W 122°01'  
2017-Apr-13 21:52N 36°43' W 122°03'1 1.4
2017-Apr-13 21:30N 36°42' W 122°04'0 0.6
2017-Apr-13 21:00N 36°42' W 122°03'0 0.0
2017-Apr-13 20:30N 36°42' W 122°03'0 0.1
2017-Apr-13 20:00N 36°42' W 122°03'0 0.1
2017-Apr-13 19:30N 36°42' W 122°03'0 0.1
2017-Apr-13 19:00N 36°42' W 122°03'0 0.2
2017-Apr-13 18:30N 36°42' W 122°03'0 0.2
2017-Apr-13 18:00N 36°42' W 122°03'0 0.0
2017-Apr-13 17:30N 36°42' W 122°03'0 0.2
2017-Apr-13 17:00N 36°42' W 122°03'0 0.3
2017-Apr-13 16:29N 36°42' W 122°03'0 0.5
2017-Apr-13 16:00N 36°42' W 122°03'10 0.2
2017-Apr-11 20:08N 36°38' W 121°52'1 9.2
2017-Apr-11 20:00N 36°37' W 121°52'1 1.2
2017-Apr-11 19:30N 36°36' W 121°53'0 0.5
2017-Apr-11 19:00N 36°36' W 121°53'0 0.4
2017-Apr-11 18:30N 36°36' W 121°53'0 0.5
2017-Apr-11 18:00N 36°36' W 121°53'0 0.4
2017-Apr-11 17:30N 36°36' W 121°53'1 2.0
2017-Apr-11 17:00N 36°37' W 121°53'0 1.0
2017-Apr-11 16:30N 36°38' W 121°53'1 0.0
2017-Apr-10 22:14N 36°38' W 121°52'1 5.1
2017-Apr-10 22:00N 36°37' W 121°52'0 0.7
2017-Apr-10 21:31N 36°37' W 121°53'1 1.5
2017-Apr-10 21:00N 36°37' W 121°53'0 0.1
2017-Apr-10 20:30N 36°37' W 121°53'0 0.4
2017-Apr-10 20:00N 36°37' W 121°53'  

Dump ship's entire track history